createdAt,value
2022-09-01T00:00:29.116Z,16.86
2022-09-01T00:02:57.452Z,16.88
2022-09-01T00:05:26.052Z,16.99
2022-09-01T00:07:54.280Z,16.94
2022-09-01T00:10:22.789Z,17.14
2022-09-01T00:12:50.995Z,16.95
2022-09-01T00:15:19.176Z,17.10
2022-09-01T00:17:47.418Z,16.96
2022-09-01T00:20:20.077Z,16.76
2022-09-01T00:22:49.274Z,16.88
2022-09-01T00:25:20.226Z,16.79
2022-09-01T00:27:50.332Z,16.82
2022-09-01T00:30:19.343Z,16.61
2022-09-01T00:32:47.732Z,16.91
2022-09-01T00:35:18.819Z,17.02
2022-09-01T00:37:47.028Z,16.96
2022-09-01T00:40:18.021Z,16.56
2022-09-01T00:42:48.289Z,16.80
2022-09-01T00:45:16.887Z,16.50
2022-09-01T00:47:45.553Z,17.05
2022-09-01T00:50:19.522Z,16.81
2022-09-01T00:52:55.451Z,16.88
2022-09-01T00:55:29.736Z,16.84
2022-09-01T00:58:03.984Z,16.78
2022-09-01T01:00:41.970Z,17.05
2022-09-01T01:03:12.364Z,17.03
2022-09-01T01:05:48.895Z,16.95
2022-09-01T01:08:20.002Z,16.74
2022-09-01T01:10:48.338Z,17.03
2022-09-01T01:13:17.407Z,17.31
2022-09-01T01:15:45.791Z,16.89
2022-09-01T01:18:22.988Z,17.01
2022-09-01T01:21:24.572Z,16.79
2022-09-01T01:24:20.827Z,16.98
2022-09-01T01:26:50.288Z,17.06
2022-09-01T01:29:19.047Z,16.46
2022-09-01T01:31:49.777Z,16.40
2022-09-01T01:34:19.857Z,16.45
2022-09-01T01:36:49.039Z,16.30
2022-09-01T01:39:25.592Z,16.48
2022-09-01T01:41:57.982Z,16.91
2022-09-01T01:44:31.129Z,16.80
2022-09-01T01:47:05.412Z,16.77
2022-09-01T01:49:36.443Z,16.62
2022-09-01T01:52:04.732Z,16.67
2022-09-01T01:54:37.573Z,16.64
2022-09-01T01:57:05.860Z,16.77
2022-09-01T01:59:34.841Z,16.81
2022-09-01T02:02:04.080Z,16.81
2022-09-01T02:04:34.600Z,17.04
2022-09-01T02:07:14.383Z,16.73
2022-09-01T02:09:46.098Z,16.53
2022-09-01T02:12:19.706Z,16.49
2022-09-01T02:14:48.666Z,16.46
2022-09-01T02:17:17.846Z,16.71
2022-09-01T02:19:47.489Z,16.67
2022-09-01T02:22:15.656Z,16.91
2022-09-01T02:24:49.247Z,16.99
2022-09-01T02:27:25.908Z,16.61
2022-09-01T02:29:55.730Z,16.54
2022-09-01T02:32:24.480Z,16.80
2022-09-01T02:34:53.962Z,17.01
2022-09-01T02:37:25.346Z,16.60
2022-09-01T02:39:53.526Z,16.58
2022-09-01T02:42:27.550Z,16.73
2022-09-01T02:44:56.894Z,16.69
2022-09-01T02:47:29.693Z,15.85
2022-09-01T02:50:01.128Z,15.22
2022-09-01T02:52:35.608Z,14.79
2022-09-01T02:55:05.081Z,14.96
2022-09-01T02:57:34.614Z,14.93
2022-09-01T03:00:20.783Z,15.09
2022-09-01T03:02:53.711Z,15.50
2022-09-01T03:05:25.491Z,15.45
2022-09-01T03:07:59.249Z,15.33
2022-09-01T03:10:35.520Z,15.72
2022-09-01T03:13:12.251Z,15.80
2022-09-01T03:15:41.943Z,16.05
2022-09-01T03:18:13.589Z,15.72
2022-09-01T03:20:46.593Z,15.57
2022-09-01T03:23:19.415Z,15.00
2022-09-01T03:25:49.345Z,15.34
2022-09-01T03:28:17.954Z,15.42
2022-09-01T03:30:50.922Z,15.64
2022-09-01T03:33:23.257Z,15.28
2022-09-01T03:35:51.803Z,15.26
2022-09-01T03:38:23.058Z,15.16
2022-09-01T03:41:04.500Z,15.10
2022-09-01T03:43:35.708Z,15.19
2022-09-01T03:46:04.558Z,15.16
2022-09-01T03:48:33.251Z,15.15
2022-09-01T03:51:02.897Z,14.96
2022-09-01T03:53:37.716Z,15.10
2022-09-01T03:56:07.389Z,14.88
2022-09-01T03:58:35.858Z,15.26
2022-09-01T04:01:05.209Z,15.22
2022-09-01T04:03:39.770Z,15.01
2022-09-01T04:06:10.741Z,15.33
2022-09-01T04:08:39.576Z,15.12
2022-09-01T04:11:18.839Z,14.54
2022-09-01T04:13:50.065Z,14.84
2022-09-01T04:16:40.487Z,13.83
2022-09-01T04:19:25.386Z,14.33
2022-09-01T04:22:00.307Z,14.55
2022-09-01T04:24:34.914Z,14.52
2022-09-01T04:27:04.078Z,14.60
2022-09-01T04:29:36.064Z,14.44
2022-09-01T04:32:13.171Z,14.78
2022-09-01T04:34:44.199Z,14.89
2022-09-01T04:37:22.093Z,14.54
2022-09-01T04:40:04.037Z,14.58
2022-09-01T04:42:33.115Z,14.70
2022-09-01T04:45:10.268Z,14.59
2022-09-01T04:47:42.368Z,14.18
2022-09-01T04:50:14.870Z,13.95
2022-09-01T04:52:47.951Z,14.34
2022-09-01T04:55:31.087Z,14.18
2022-09-01T04:58:08.318Z,14.47
2022-09-01T05:00:40.513Z,14.04
2022-09-01T05:03:10.328Z,13.62
2022-09-01T05:06:02.604Z,13.51
2022-09-01T05:08:32.639Z,13.88
2022-09-01T05:11:07.598Z,13.80
2022-09-01T05:13:39.844Z,13.99
2022-09-01T05:16:13.325Z,14.22
2022-09-01T05:18:47.618Z,14.28
2022-09-01T05:21:22.433Z,14.49
2022-09-01T05:23:51.912Z,14.56
2022-09-01T05:26:26.306Z,14.36
2022-09-01T05:29:00.734Z,14.57
2022-09-01T05:31:38.003Z,14.10
2022-09-01T05:34:09.715Z,14.25
2022-09-01T05:36:46.057Z,14.33
2022-09-01T05:39:14.907Z,14.37
2022-09-01T05:41:43.870Z,14.41
2022-09-01T05:44:14.243Z,14.47
2022-09-01T05:46:44.593Z,14.44
2022-09-01T05:49:16.276Z,14.26
2022-09-01T05:51:50.291Z,14.37
2022-09-01T05:54:25.636Z,14.45
2022-09-01T05:57:12.690Z,14.44
2022-09-01T05:59:53.920Z,14.51
2022-09-01T06:02:28.860Z,14.65
2022-09-01T06:05:00.376Z,14.62
2022-09-01T06:07:35.853Z,14.62
2022-09-01T06:10:05.467Z,14.61
2022-09-01T06:12:34.492Z,14.54
2022-09-01T06:15:02.818Z,14.67
2022-09-01T06:17:34.645Z,14.73
2022-09-01T06:20:10.697Z,14.54
2022-09-01T06:22:41.251Z,14.58
2022-09-01T06:25:10.331Z,14.30
2022-09-01T06:27:42.736Z,14.30
2022-09-01T06:30:23.695Z,14.57
2022-09-01T06:33:05.752Z,14.86
2022-09-01T06:35:35.721Z,14.91
2022-09-01T06:38:06.963Z,14.81
2022-09-01T06:40:46.595Z,15.00
2022-09-01T06:43:16.378Z,15.33
2022-09-01T06:45:54.966Z,15.26
2022-09-01T06:48:25.129Z,15.16
2022-09-01T06:51:21.370Z,15.26
2022-09-01T06:53:57.103Z,15.17
2022-09-01T06:56:34.066Z,15.28
2022-09-01T06:59:13.144Z,15.53
2022-09-01T07:01:42.058Z,15.70
2022-09-01T07:04:13.597Z,15.56
2022-09-01T07:10:21.357Z,15.63
2022-09-01T07:13:08.953Z,15.75
2022-09-01T07:18:37.574Z,16.02
2022-09-01T07:21:36.879Z,16.17
2022-09-01T07:24:13.426Z,16.18
2022-09-01T07:26:56.089Z,16.18
2022-09-01T07:29:25.925Z,16.44
2022-09-01T07:34:47.531Z,16.19
2022-09-01T07:41:44.231Z,15.55
2022-09-01T07:43:37.172Z,16.60
2022-09-01T07:49:29.596Z,16.94
2022-09-01T07:51:51.820Z,17.09
2022-09-01T07:54:24.048Z,17.09
2022-09-01T07:56:55.519Z,17.01
2022-09-01T07:59:24.627Z,17.20
2022-09-01T08:02:05.366Z,17.37
2022-09-01T08:04:34.563Z,17.56
2022-09-01T08:07:03.380Z,17.71
2022-09-01T08:09:37.994Z,17.78
2022-09-01T08:12:08.876Z,17.58
2022-09-01T08:15:12.727Z,17.57
2022-09-01T08:17:57.592Z,17.32
2022-09-01T08:20:28.370Z,17.60
2022-09-01T08:23:01.741Z,17.47
2022-09-01T08:25:37.194Z,18.09
2022-09-01T08:28:06.295Z,17.82
2022-09-01T08:30:35.990Z,17.81
2022-09-01T08:33:12.413Z,18.08
2022-09-01T08:35:49.465Z,18.80
2022-09-01T08:38:20.232Z,18.53
2022-09-01T08:40:57.476Z,18.69
2022-09-01T08:43:51.776Z,19.78
2022-09-01T08:46:30.694Z,19.91
2022-09-01T08:49:24.699Z,20.46
2022-09-01T08:52:27.845Z,19.27
2022-09-01T08:55:06.011Z,20.39
2022-09-01T08:57:40.575Z,20.25
2022-09-01T09:00:39.582Z,19.33
2022-09-01T09:03:43.827Z,20.74
2022-09-01T09:06:37.709Z,19.73
2022-09-01T09:09:09.451Z,19.40
2022-09-01T09:11:51.115Z,19.27
2022-09-01T09:15:21.964Z,20.19
2022-09-01T09:18:20.088Z,20.69
2022-09-01T09:21:30.498Z,21.66
2022-09-01T09:24:07.429Z,22.06
2022-09-01T09:26:43.216Z,20.27
2022-09-01T09:29:11.661Z,21.58
2022-09-01T09:31:50.482Z,21.64
2022-09-01T09:34:33.330Z,22.80
2022-09-01T09:37:30.141Z,22.51
2022-09-01T09:40:16.090Z,22.29
2022-09-01T09:42:55.454Z,22.87
2022-09-01T09:45:42.003Z,23.44
2022-09-01T09:48:30.399Z,22.97
2022-09-01T09:51:19.855Z,23.63
2022-09-01T09:53:49.011Z,24.09
2022-09-01T09:56:25.450Z,23.43
2022-09-01T09:58:53.830Z,22.10
2022-09-01T10:01:24.147Z,21.17
2022-09-01T10:04:01.360Z,21.60
2022-09-01T10:06:46.809Z,20.86
2022-09-01T10:09:36.491Z,23.37
2022-09-01T10:12:07.067Z,21.88
2022-09-01T10:14:53.380Z,23.30
2022-09-01T10:17:47.287Z,23.71
2022-09-01T10:20:25.453Z,24.35
2022-09-01T10:22:54.182Z,24.09
2022-09-01T10:25:32.244Z,24.18
2022-09-01T10:28:21.437Z,24.23
2022-09-01T10:30:53.921Z,24.70
2022-09-01T10:33:23.300Z,24.81
2022-09-01T10:35:55.259Z,24.65
2022-09-01T10:38:31.147Z,24.10
2022-09-01T10:41:15.011Z,22.66
2022-09-01T10:43:51.439Z,23.74
2022-09-01T10:46:38.632Z,23.38
2022-09-01T10:49:28.108Z,23.59
2022-09-01T10:52:03.158Z,23.99
2022-09-01T10:54:51.008Z,24.19
2022-09-01T10:57:41.898Z,24.70
2022-09-01T11:00:36.140Z,25.16
2022-09-01T11:03:31.485Z,24.21
2022-09-01T11:06:13.302Z,24.99
2022-09-01T11:09:03.083Z,25.49
2022-09-01T11:11:46.911Z,25.82
2022-09-01T11:14:26.568Z,26.12
2022-09-01T11:17:15.377Z,24.05
2022-09-01T11:20:29.753Z,26.04
2022-09-01T11:23:23.957Z,25.53
2022-09-01T11:26:20.920Z,25.98
2022-09-01T11:28:50.127Z,25.24
2022-09-01T11:31:30.634Z,23.91
2022-09-01T11:34:20.703Z,24.13
2022-09-01T11:37:00.334Z,22.75
2022-09-01T11:39:42.132Z,22.98
2022-09-01T11:42:39.638Z,23.31
2022-09-01T11:45:33.963Z,23.52
2022-09-01T11:48:10.903Z,22.59
2022-09-01T11:50:42.383Z,23.33
2022-09-01T11:53:20.399Z,23.59
2022-09-01T11:55:52.592Z,23.69
2022-09-01T11:58:30.875Z,23.14
2022-09-01T12:01:15.891Z,23.02
2022-09-01T12:03:47.302Z,23.17
2022-09-01T12:06:25.093Z,24.03
2022-09-01T12:09:05.277Z,23.16
2022-09-01T12:11:36.032Z,22.08
2022-09-01T12:14:12.108Z,21.45
2022-09-01T12:16:42.629Z,21.31
2022-09-01T12:19:27.419Z,21.90
2022-09-01T12:22:15.068Z,22.92
2022-09-01T12:24:50.885Z,23.01
2022-09-01T12:27:23.351Z,23.44
2022-09-01T12:29:52.180Z,22.84
2022-09-01T12:32:21.290Z,22.71
2022-09-01T12:35:10.860Z,23.68
2022-09-01T12:37:39.871Z,24.17
2022-09-01T12:40:30.968Z,23.63
2022-09-01T12:42:59.333Z,22.22
2022-09-01T12:45:47.858Z,22.84
2022-09-01T12:48:35.669Z,22.60
2022-09-01T12:51:24.528Z,22.53
2022-09-01T12:54:04.870Z,21.86
2022-09-01T12:56:36.265Z,21.51
2022-09-01T12:59:36.373Z,20.64
2022-09-01T13:02:44.388Z,21.72
2022-09-01T13:05:41.833Z,23.05
2022-09-01T13:08:16.679Z,23.24
2022-09-01T13:10:55.647Z,23.39
2022-09-01T13:13:26.819Z,23.49
2022-09-01T13:16:01.602Z,22.79
2022-09-01T13:18:31.276Z,21.37
2022-09-01T13:21:01.005Z,21.14
2022-09-01T13:23:29.700Z,21.90
2022-09-01T13:25:59.404Z,21.68
2022-09-01T13:28:28.301Z,21.18
2022-09-01T13:34:10.755Z,23.44
2022-09-01T13:36:46.209Z,23.71
2022-09-01T13:39:16.363Z,23.85
2022-09-01T13:41:44.600Z,24.21
2022-09-01T13:44:13.067Z,24.45
2022-09-01T13:50:06.617Z,23.16
2022-09-01T13:52:19.246Z,23.79
2022-09-01T13:54:47.860Z,23.99
2022-09-01T13:57:16.711Z,24.28
2022-09-01T13:59:45.091Z,24.39
2022-09-01T14:02:13.343Z,22.49
2022-09-01T14:04:41.865Z,23.91
2022-09-01T14:07:11.092Z,23.49
2022-09-01T14:09:39.343Z,23.61
2022-09-01T14:12:07.717Z,23.20
2022-09-01T14:17:24.109Z,24.02
2022-09-01T14:19:52.568Z,24.35
2022-09-01T14:22:21.209Z,24.24
2022-09-01T14:24:49.401Z,24.23
2022-09-01T14:27:17.590Z,24.48
2022-09-01T14:29:50.803Z,24.00
2022-09-01T14:32:26.958Z,24.09
2022-09-01T14:34:57.137Z,23.83
2022-09-01T14:37:25.413Z,23.72
2022-09-01T14:39:57.427Z,23.61
2022-09-01T14:42:28.727Z,23.84
2022-09-01T14:44:56.968Z,23.64
2022-09-01T14:47:25.962Z,23.91
2022-09-01T14:49:54.907Z,23.70
2022-09-01T14:52:23.535Z,23.95
2022-09-01T14:54:52.023Z,23.65
2022-09-01T14:57:29.449Z,24.05
2022-09-01T15:00:00.891Z,24.10
2022-09-01T15:02:29.488Z,23.74
2022-09-01T15:04:58.213Z,24.38
2022-09-01T15:07:26.706Z,24.21
2022-09-01T15:09:55.236Z,24.79
2022-09-01T15:12:24.336Z,24.46
2022-09-01T15:14:52.972Z,23.11
2022-09-01T15:17:21.580Z,23.36
2022-09-01T15:19:50.250Z,24.25
2022-09-01T15:22:19.057Z,24.23
2022-09-01T15:24:48.331Z,24.43
2022-09-01T15:27:16.780Z,24.17
2022-09-01T15:29:48.123Z,23.89
2022-09-01T15:32:27.387Z,24.00
2022-09-01T15:34:57.295Z,23.17
2022-09-01T15:37:26.628Z,23.61
2022-09-01T15:39:55.469Z,23.87
2022-09-01T15:42:24.566Z,23.33
2022-09-01T15:44:53.569Z,23.84
2022-09-01T15:47:23.944Z,24.03
2022-09-01T15:49:54.508Z,23.29
2022-09-01T15:52:25.309Z,22.84
2022-09-01T15:54:54.239Z,23.64
2022-09-01T15:57:22.944Z,24.07
2022-09-01T15:59:51.583Z,24.16
2022-09-01T16:02:23.684Z,23.93
2022-09-01T16:04:52.349Z,23.80
2022-09-01T16:07:20.971Z,23.61
2022-09-01T16:09:49.498Z,23.54
2022-09-01T16:12:20.385Z,23.30
2022-09-01T16:14:49.617Z,22.98
2022-09-01T16:17:47.074Z,23.30
2022-09-01T16:20:45.142Z,23.15
2022-09-01T16:23:19.295Z,23.67
2022-09-01T16:25:49.220Z,22.89
2022-09-01T16:28:36.289Z,23.24
2022-09-01T16:31:21.279Z,23.46
2022-09-01T16:33:56.266Z,23.31
2022-09-01T16:36:52.296Z,22.99
2022-09-01T16:39:32.489Z,22.98
2022-09-01T16:42:06.527Z,23.18
2022-09-01T16:45:19.527Z,23.14
2022-09-01T16:48:04.022Z,23.12
2022-09-01T16:50:37.707Z,21.90
2022-09-01T16:53:22.651Z,22.05
2022-09-01T16:56:14.581Z,22.35
2022-09-01T16:59:11.990Z,22.31
2022-09-01T17:02:17.527Z,22.21
2022-09-01T17:05:26.178Z,22.20
2022-09-01T17:08:31.236Z,22.32
2022-09-01T17:11:16.673Z,22.23
2022-09-01T17:13:52.199Z,22.03
2022-09-01T17:16:42.500Z,22.05
2022-09-01T17:19:18.833Z,21.98
2022-09-01T17:21:54.000Z,22.02
2022-09-01T17:24:38.800Z,22.11
2022-09-01T17:27:35.561Z,22.13
2022-09-01T17:30:07.248Z,22.07
2022-09-01T17:33:12.145Z,21.93
2022-09-01T17:36:18.715Z,21.43
2022-09-01T17:38:55.853Z,21.42
2022-09-01T17:41:55.891Z,21.43
2022-09-01T17:44:41.168Z,21.37
2022-09-01T17:47:56.337Z,21.10
2022-09-01T17:51:11.571Z,21.41
2022-09-01T17:54:27.457Z,21.36
2022-09-01T17:56:58.593Z,21.30
2022-09-01T18:00:04.768Z,20.89
2022-09-01T18:03:19.167Z,21.36
2022-09-01T18:06:05.037Z,21.04
2022-09-01T18:08:42.042Z,21.25
2022-09-01T18:11:40.315Z,21.26
2022-09-01T18:14:49.269Z,21.16
2022-09-01T18:17:46.123Z,20.98
2022-09-01T18:20:28.019Z,21.05
2022-09-01T18:23:08.557Z,21.17
2022-09-01T18:25:48.034Z,21.03
2022-09-01T18:28:16.867Z,20.93
2022-09-01T18:31:06.646Z,20.87
2022-09-01T18:33:50.054Z,20.38
2022-09-01T18:36:45.589Z,20.57
2022-09-01T18:40:11.517Z,20.43
2022-09-01T18:42:48.277Z,20.33
2022-09-01T18:45:38.728Z,19.83
2022-09-01T18:48:48.097Z,19.87
2022-09-01T18:51:25.565Z,20.00
2022-09-01T18:54:16.153Z,20.14
2022-09-01T18:57:04.916Z,20.20
2022-09-01T18:59:54.792Z,19.88
2022-09-01T19:02:41.790Z,19.66
2022-09-01T19:05:33.579Z,19.08
2022-09-01T19:08:42.442Z,19.11
2022-09-01T19:11:43.431Z,19.05
2022-09-01T19:14:42.021Z,19.35
2022-09-01T19:17:41.103Z,19.31
2022-09-01T19:20:19.478Z,19.41
2022-09-01T19:23:01.259Z,19.18
2022-09-01T19:25:38.867Z,18.93
2022-09-01T19:28:44.019Z,18.96
2022-09-01T19:31:34.628Z,18.86
2022-09-01T19:34:17.872Z,18.50
2022-09-01T19:36:55.354Z,18.35
2022-09-01T19:39:29.699Z,18.42
2022-09-01T19:42:07.228Z,18.42
2022-09-01T19:44:53.384Z,18.25
2022-09-01T19:48:01.844Z,18.30
2022-09-01T19:50:54.375Z,18.10
2022-09-01T19:53:56.332Z,18.21
2022-09-01T19:56:31.455Z,18.18
2022-09-01T19:59:27.271Z,18.18
2022-09-01T20:02:02.338Z,17.98
2022-09-01T20:04:46.253Z,18.00
2022-09-01T20:07:31.818Z,18.18
2022-09-01T20:10:21.706Z,17.98
2022-09-01T20:13:30.553Z,17.98
2022-09-01T20:16:17.713Z,17.96
2022-09-01T20:18:58.303Z,18.10
2022-09-01T20:21:26.659Z,17.66
2022-09-01T20:24:08.361Z,17.94
2022-09-01T20:26:59.603Z,17.75
2022-09-01T20:30:07.481Z,17.81
2022-09-01T20:33:03.871Z,17.66
2022-09-01T20:36:02.090Z,17.87
2022-09-01T20:39:28.278Z,17.61
2022-09-01T20:42:19.965Z,17.57
2022-09-01T20:44:57.385Z,17.48
2022-09-01T20:47:30.862Z,17.24
2022-09-01T20:50:11.894Z,17.49
2022-09-01T20:52:52.022Z,17.31
2022-09-01T20:55:37.621Z,17.25
2022-09-01T20:58:33.038Z,17.16
2022-09-01T21:01:23.956Z,17.07
2022-09-01T21:04:11.717Z,17.10
2022-09-01T21:06:42.751Z,17.00
2022-09-01T21:09:28.553Z,16.97
2022-09-01T21:12:28.184Z,17.30
2022-09-01T21:15:04.646Z,17.30
2022-09-01T21:18:26.909Z,17.10
2022-09-01T21:21:43.070Z,16.88
2022-09-01T21:24:11.361Z,17.01
2022-09-01T21:26:40.354Z,17.06
2022-09-01T21:29:46.993Z,17.12
2022-09-01T21:32:16.518Z,16.93
2022-09-01T21:34:46.736Z,16.96
2022-09-01T21:37:15.238Z,16.76
2022-09-01T21:39:43.620Z,16.77
2022-09-01T21:42:13.646Z,16.73
2022-09-01T21:44:42.516Z,16.88
2022-09-01T21:47:12.175Z,16.81
2022-09-01T21:49:40.822Z,16.79
2022-09-01T21:52:09.697Z,16.50
2022-09-01T21:54:37.955Z,16.62
2022-09-01T21:57:06.293Z,16.65
2022-09-01T21:59:34.562Z,16.59
2022-09-01T22:02:03.357Z,16.82
2022-09-01T22:04:33.152Z,16.79
2022-09-01T22:07:01.792Z,16.61
2022-09-01T22:09:30.249Z,16.53
2022-09-01T22:11:58.461Z,16.38
2022-09-01T22:14:27.917Z,16.35
2022-09-01T22:16:56.988Z,16.30
2022-09-01T22:19:26.515Z,16.04
2022-09-01T22:21:55.059Z,16.15
2022-09-01T22:24:23.281Z,16.14
2022-09-01T22:26:51.633Z,16.11
2022-09-01T22:29:19.892Z,16.02
2022-09-01T22:31:48.123Z,16.26
2022-09-01T22:34:16.328Z,16.20
2022-09-01T22:36:49.086Z,16.18
2022-09-01T22:39:18.933Z,16.15
2022-09-01T22:41:48.382Z,16.18
2022-09-01T22:44:16.592Z,16.02
2022-09-01T22:46:45.503Z,15.86
2022-09-01T22:49:13.731Z,15.76
2022-09-01T22:51:44.203Z,15.80
2022-09-01T22:54:12.553Z,15.54
2022-09-01T22:56:42.293Z,15.87
2022-09-01T22:59:14.772Z,15.70
2022-09-01T23:01:47.625Z,15.72
2022-09-01T23:04:17.670Z,15.91
2022-09-01T23:06:50.818Z,15.90
2022-09-01T23:09:20.087Z,15.52
2022-09-01T23:11:49.626Z,15.63
2022-09-01T23:14:18.643Z,15.53
2022-09-01T23:16:47.669Z,15.53
2022-09-01T23:19:21.482Z,15.40
2022-09-01T23:21:51.382Z,15.47
2022-09-01T23:24:20.809Z,15.53
2022-09-01T23:26:49.908Z,15.62
2022-09-01T23:29:19.721Z,15.40
2022-09-01T23:31:48.080Z,15.55
2022-09-01T23:34:17.015Z,15.51
2022-09-01T23:36:45.668Z,15.56
2022-09-01T23:39:14.289Z,15.55
2022-09-01T23:41:42.820Z,15.59
2022-09-01T23:44:11.961Z,15.52
2022-09-01T23:46:44.783Z,15.49
2022-09-01T23:49:16.444Z,15.63
2022-09-01T23:51:47.579Z,15.43
2022-09-01T23:54:16.772Z,15.41
2022-09-01T23:56:46.118Z,15.63
2022-09-01T23:59:15.860Z,15.64
